createdAt,value
2017-12-09T00:02:10.903Z,228.57
2017-12-09T00:04:38.494Z,224.98
2017-12-09T00:07:06.189Z,164.88
2017-12-09T00:09:33.746Z,175.80
2017-12-09T00:12:02.178Z,163.70
2017-12-09T00:14:29.873Z,149.77
2017-12-09T00:16:57.475Z,122.22
2017-12-09T00:19:25.461Z,117.65
2017-12-09T00:21:53.071Z,89.00
2017-12-09T00:24:20.902Z,84.78
2017-12-09T00:26:48.533Z,112.35
2017-12-09T00:29:16.288Z,111.22
2017-12-09T00:31:44.438Z,119.32
2017-12-09T00:34:12.061Z,117.50
2017-12-09T00:36:39.827Z,99.90
2017-12-09T00:39:07.515Z,100.65
2017-12-09T00:41:35.074Z,117.93
2017-12-09T00:44:02.837Z,114.60
2017-12-09T00:46:31.046Z,116.03
2017-12-09T00:48:58.714Z,115.28
2017-12-09T00:51:26.328Z,108.68
2017-12-09T00:53:53.921Z,113.78
2017-12-09T00:56:21.455Z,112.72
2017-12-09T00:58:49.245Z,115.22
2017-12-09T01:01:16.778Z,113.00
2017-12-09T01:03:44.417Z,118.15
2017-12-09T01:06:11.992Z,118.37
2017-12-09T01:08:39.606Z,124.35
2017-12-09T01:11:07.164Z,119.68
2017-12-09T01:13:34.742Z,122.95
2017-12-09T01:16:13.937Z,118.35
2017-12-09T01:18:53.566Z,90.87
2017-12-09T01:21:21.267Z,88.35
2017-12-09T01:23:49.795Z,85.05
2017-12-09T01:26:17.511Z,68.37
2017-12-09T01:28:46.060Z,61.55
2017-12-09T01:31:13.778Z,73.32
2017-12-09T01:33:41.528Z,69.40
2017-12-09T01:36:09.936Z,68.32
2017-12-09T01:38:37.677Z,65.30
2017-12-09T01:41:05.269Z,64.35
2017-12-09T01:43:33.929Z,58.53
2017-12-09T01:46:01.750Z,59.65
2017-12-09T01:48:30.247Z,63.03
2017-12-09T01:50:59.079Z,64.90
2017-12-09T01:53:26.907Z,67.03
2017-12-09T01:55:54.491Z,56.28
2017-12-09T01:58:22.116Z,59.83
2017-12-09T02:00:49.658Z,64.43
2017-12-09T02:03:17.250Z,59.60
2017-12-09T02:05:45.782Z,64.25
2017-12-09T02:08:13.596Z,63.75
2017-12-09T02:10:41.563Z,62.33
2017-12-09T02:13:09.460Z,68.00
2017-12-09T02:15:37.331Z,64.70
2017-12-09T02:18:05.139Z,66.72
2017-12-09T02:20:32.971Z,62.00
2017-12-09T02:23:00.961Z,57.35
2017-12-09T02:25:29.531Z,75.15
2017-12-09T02:27:57.822Z,81.50
2017-12-09T02:30:26.345Z,76.50
2017-12-09T02:32:54.908Z,71.45
2017-12-09T02:35:22.938Z,66.75
2017-12-09T02:37:50.566Z,62.75
2017-12-09T02:40:18.174Z,61.75
2017-12-09T02:42:45.859Z,75.30
2017-12-09T02:45:13.691Z,82.37
2017-12-09T02:47:41.300Z,91.65
2017-12-09T02:50:09.658Z,89.22
2017-12-09T02:52:37.965Z,82.80
2017-12-09T02:55:05.595Z,76.43
2017-12-09T02:57:33.176Z,81.30
2017-12-09T03:00:00.986Z,83.85
2017-12-09T03:02:28.677Z,77.43
2017-12-09T03:04:56.238Z,82.05
2017-12-09T03:07:24.492Z,84.50
2017-12-09T03:09:52.119Z,78.20
2017-12-09T03:12:20.167Z,81.90
2017-12-09T03:14:48.827Z,79.37
2017-12-09T03:17:16.474Z,72.40
2017-12-09T03:19:45.813Z,69.32
2017-12-09T03:22:13.480Z,64.40
2017-12-09T03:24:41.077Z,69.85
2017-12-09T03:27:08.894Z,66.90
2017-12-09T03:29:36.697Z,66.22
2017-12-09T03:32:04.290Z,64.82
2017-12-09T03:34:32.105Z,62.00
2017-12-09T03:37:00.866Z,59.28
2017-12-09T03:39:28.487Z,60.70
2017-12-09T03:41:56.773Z,56.50
2017-12-09T03:44:24.588Z,60.00
2017-12-09T03:46:52.405Z,62.38
2017-12-09T03:49:19.980Z,54.22
2017-12-09T03:51:47.544Z,54.15
2017-12-09T03:54:15.355Z,52.45
2017-12-09T03:56:44.101Z,53.08
2017-12-09T03:59:12.144Z,48.35
2017-12-09T04:01:39.743Z,51.10
2017-12-09T04:04:07.634Z,49.30
2017-12-09T04:06:35.277Z,50.83
2017-12-09T04:09:03.929Z,50.05
2017-12-09T04:11:31.675Z,51.80
2017-12-09T04:13:59.427Z,48.42
2017-12-09T04:16:27.098Z,51.35
2017-12-09T04:18:54.698Z,51.58
2017-12-09T04:21:22.300Z,52.42
2017-12-09T04:23:50.113Z,56.58
2017-12-09T04:26:17.773Z,57.58
2017-12-09T04:28:45.355Z,54.55
2017-12-09T04:31:12.930Z,50.08
2017-12-09T04:33:40.504Z,52.33
2017-12-09T04:36:08.421Z,52.08
2017-12-09T04:38:36.152Z,58.92
2017-12-09T04:41:03.713Z,56.50
2017-12-09T04:43:32.423Z,57.17
2017-12-09T04:46:00.042Z,54.28
2017-12-09T04:48:27.606Z,57.40
2017-12-09T04:50:55.932Z,55.05
2017-12-09T04:53:23.562Z,60.15
2017-12-09T04:55:51.933Z,51.28
2017-12-09T04:58:20.290Z,55.22
2017-12-09T05:00:48.661Z,46.40
2017-12-09T05:03:16.304Z,45.15
2017-12-09T05:05:43.893Z,53.45
2017-12-09T05:08:12.248Z,43.40
2017-12-09T05:10:40.019Z,48.00
2017-12-09T05:13:07.644Z,40.95
2017-12-09T05:15:36.777Z,41.78
2017-12-09T05:18:04.731Z,37.42
2017-12-09T05:20:32.359Z,41.47
2017-12-09T05:22:59.998Z,41.37
2017-12-09T05:25:28.005Z,44.08
2017-12-09T05:27:56.492Z,48.08
2017-12-09T05:30:24.306Z,45.60
2017-12-09T05:32:51.848Z,46.37
2017-12-09T05:35:19.456Z,48.22
2017-12-09T05:37:47.071Z,46.13
2017-12-09T05:40:14.855Z,47.42
2017-12-09T05:42:42.672Z,47.60
2017-12-09T05:45:10.258Z,55.15
2017-12-09T05:47:38.186Z,53.40
2017-12-09T05:50:06.041Z,51.53
2017-12-09T05:52:33.672Z,50.28
2017-12-09T05:55:01.256Z,47.28
2017-12-09T05:57:29.044Z,49.90
2017-12-09T05:59:58.261Z,39.60
2017-12-09T06:02:25.917Z,45.70
2017-12-09T06:04:53.489Z,46.42
2017-12-09T06:07:21.059Z,45.97
2017-12-09T06:09:48.701Z,45.38
2017-12-09T06:12:18.445Z,48.05
2017-12-09T06:14:46.349Z,49.70
2017-12-09T06:17:14.133Z,46.55
2017-12-09T06:19:41.904Z,46.97
2017-12-09T06:22:09.791Z,45.40
2017-12-09T06:24:37.562Z,49.10
2017-12-09T06:27:06.329Z,49.42
2017-12-09T06:36:34.719Z,46.07
2017-12-09T06:39:02.702Z,45.73
2017-12-09T06:41:30.492Z,45.00
2017-12-09T06:43:58.273Z,45.70
2017-12-09T06:46:26.032Z,44.43
2017-12-09T06:49:01.423Z,44.50
2017-12-09T06:51:30.695Z,45.83
2017-12-09T06:53:59.313Z,43.87
2017-12-09T06:56:27.050Z,48.50
2017-12-09T06:58:54.711Z,46.00
2017-12-09T07:01:22.462Z,48.83
2017-12-09T07:03:50.265Z,61.93
2017-12-09T07:06:18.405Z,54.70
2017-12-09T07:08:46.203Z,54.43
2017-12-09T07:11:14.931Z,55.40
2017-12-09T07:13:42.777Z,55.20
2017-12-09T07:16:11.232Z,54.53
2017-12-09T07:18:39.207Z,61.73
2017-12-09T07:21:07.991Z,61.90
2017-12-09T07:23:37.335Z,60.73
2017-12-09T07:26:05.148Z,57.57
2017-12-09T07:28:32.812Z,62.30
2017-12-09T07:31:01.243Z,62.27
2017-12-09T07:33:28.915Z,57.87
2017-12-09T07:35:58.358Z,60.73
2017-12-09T07:38:26.411Z,55.17
2017-12-09T07:40:54.827Z,58.35
2017-12-09T07:43:29.047Z,59.73
2017-12-09T07:46:04.029Z,54.60
2017-12-09T07:48:31.983Z,50.43
2017-12-09T07:51:01.133Z,50.63
2017-12-09T07:53:30.685Z,48.90
2017-12-09T07:56:13.535Z,54.27
2017-12-09T07:58:42.071Z,53.00
2017-12-09T08:01:09.763Z,51.73
2017-12-09T08:03:37.897Z,56.27
2017-12-09T08:06:05.573Z,63.87
2017-12-09T08:08:34.988Z,59.30
2017-12-09T08:11:02.790Z,58.08
2017-12-09T08:13:31.407Z,51.20
2017-12-09T08:16:00.262Z,51.17
2017-12-09T08:18:28.098Z,55.43
2017-12-09T08:23:28.437Z,55.28
2017-12-09T08:25:56.121Z,54.40
2017-12-09T08:28:23.776Z,54.60
2017-12-09T08:30:52.063Z,52.20
2017-12-09T08:33:19.795Z,50.63
2017-12-09T08:35:48.095Z,55.87
2017-12-09T08:38:15.833Z,54.15
2017-12-09T08:40:43.930Z,66.53
2017-12-09T08:43:12.643Z,62.77
2017-12-09T08:45:40.420Z,59.97
2017-12-09T08:48:08.116Z,60.00
2017-12-09T08:50:36.016Z,71.47
2017-12-09T08:53:03.759Z,74.87
2017-12-09T08:55:31.412Z,72.37
2017-12-09T08:57:59.021Z,61.23
2017-12-09T09:00:27.093Z,57.43
2017-12-09T09:02:55.506Z,37.97
2017-12-09T09:05:23.184Z,45.80
2017-12-09T09:07:50.883Z,38.70
2017-12-09T09:10:18.636Z,39.00
2017-12-09T09:12:46.237Z,38.50
2017-12-09T09:15:14.131Z,36.08
2017-12-09T09:17:41.761Z,34.73
2017-12-09T09:20:09.386Z,32.60
2017-12-09T09:22:36.981Z,31.80
2017-12-09T09:25:04.554Z,32.80
2017-12-09T09:27:32.342Z,35.07
2017-12-09T09:30:00.125Z,35.80
2017-12-09T09:32:27.829Z,35.57
2017-12-09T09:34:55.639Z,31.63
2017-12-09T09:37:23.244Z,28.13
2017-12-09T09:39:51.590Z,30.27
2017-12-09T09:42:19.425Z,30.87
2017-12-09T09:44:47.194Z,33.13
2017-12-09T09:47:14.826Z,33.93
2017-12-09T09:49:42.397Z,35.63
2017-12-09T09:52:10.101Z,38.67
2017-12-09T09:54:37.965Z,33.00
2017-12-09T09:57:05.617Z,36.17
2017-12-09T09:59:33.469Z,33.50
2017-12-09T10:02:02.954Z,32.20
2017-12-09T10:04:30.599Z,31.33
2017-12-09T10:06:58.186Z,31.37
2017-12-09T10:09:25.793Z,33.97
2017-12-09T10:11:53.542Z,31.87
2017-12-09T10:14:21.101Z,29.47
2017-12-09T10:16:48.663Z,30.23
2017-12-09T10:19:16.260Z,31.10
2017-12-09T10:21:44.050Z,28.80
2017-12-09T10:24:11.760Z,26.00
2017-12-09T10:26:39.319Z,28.10
2017-12-09T10:29:07.674Z,25.50
2017-12-09T10:31:35.275Z,27.47
2017-12-09T10:34:02.917Z,27.07
2017-12-09T10:36:30.539Z,23.87
2017-12-09T10:38:58.117Z,26.30
2017-12-09T10:41:25.720Z,29.03
2017-12-09T10:43:53.324Z,24.53
2017-12-09T10:46:20.916Z,25.90
2017-12-09T10:48:48.710Z,26.57
2017-12-09T10:51:16.315Z,25.23
2017-12-09T10:53:43.974Z,26.87
2017-12-09T10:56:11.801Z,23.37
2017-12-09T10:58:39.733Z,20.80
2017-12-09T11:01:07.330Z,21.17
2017-12-09T11:03:34.937Z,21.50
2017-12-09T11:06:02.570Z,20.97
2017-12-09T11:08:30.164Z,19.97
2017-12-09T11:10:57.796Z,18.87
2017-12-09T11:13:25.361Z,18.97
2017-12-09T11:15:53.030Z,17.00
2017-12-09T11:18:20.596Z,12.50
2017-12-09T11:20:48.247Z,15.70
2017-12-09T11:23:15.866Z,11.83
2017-12-09T11:25:43.984Z,12.83
2017-12-09T11:28:11.606Z,19.57
2017-12-09T11:30:39.192Z,21.23
2017-12-09T11:33:06.754Z,19.50
2017-12-09T11:35:34.830Z,18.70
2017-12-09T11:38:02.480Z,20.70
2017-12-09T11:40:30.098Z,16.60
2017-12-09T11:42:57.701Z,23.57
2017-12-09T11:45:25.298Z,19.80
2017-12-09T11:47:52.862Z,20.40
2017-12-09T11:50:20.482Z,28.63
2017-12-09T11:52:48.101Z,24.33
2017-12-09T11:55:15.710Z,13.60
2017-12-09T11:57:43.322Z,8.93
2017-12-09T12:00:10.951Z,17.60
2017-12-09T12:02:39.563Z,17.50
2017-12-09T12:05:07.134Z,3.60
2017-12-09T12:07:34.744Z,2.60
2017-12-09T12:10:02.383Z,2.80
2017-12-09T12:12:29.960Z,3.80
2017-12-09T12:14:57.552Z,2.37
2017-12-09T12:17:25.149Z,2.90
2017-12-09T12:19:52.761Z,3.40
2017-12-09T12:22:20.337Z,3.70
2017-12-09T12:24:48.129Z,6.10
2017-12-09T12:27:15.713Z,11.37
2017-12-09T12:29:43.633Z,12.27
2017-12-09T12:32:11.288Z,8.70
2017-12-09T12:34:39.089Z,3.73
2017-12-09T12:37:06.852Z,3.27
2017-12-09T12:39:34.471Z,2.90
2017-12-09T12:42:02.273Z,5.20
2017-12-09T12:44:29.823Z,3.40
2017-12-09T12:46:57.468Z,2.77
2017-12-09T12:49:25.109Z,2.53
2017-12-09T12:52:09.156Z,2.67
2017-12-09T12:54:37.631Z,2.57
2017-12-09T12:57:08.693Z,2.83
2017-12-09T13:02:35.784Z,3.00
2017-12-09T13:05:08.418Z,3.50
2017-12-09T13:07:39.856Z,2.57
2017-12-09T13:10:09.116Z,2.47
2017-12-09T13:12:44.087Z,2.27
2017-12-09T13:15:13.738Z,3.60
2017-12-09T13:17:50.168Z,6.17
2017-12-09T13:20:40.836Z,7.17
2017-12-09T13:23:12.637Z,8.37
2017-12-09T13:28:29.458Z,4.40
2017-12-09T13:30:57.136Z,2.40
2017-12-09T13:33:24.735Z,2.37
2017-12-09T13:35:53.161Z,3.23
2017-12-09T13:38:21.085Z,3.00
2017-12-09T13:40:48.886Z,3.20
2017-12-09T13:43:17.406Z,3.90
2017-12-09T13:45:46.229Z,4.60
2017-12-09T13:48:20.328Z,2.70
2017-12-09T13:50:58.274Z,2.20
2017-12-09T13:56:16.629Z,3.80
2017-12-09T13:58:46.980Z,2.20
2017-12-09T14:01:14.814Z,3.40
2017-12-09T14:03:42.392Z,2.10
2017-12-09T14:06:09.966Z,2.00
2017-12-09T14:08:37.559Z,2.43
2017-12-09T14:11:05.162Z,2.57
2017-12-09T14:13:32.888Z,4.27
2017-12-09T14:16:00.501Z,3.13
2017-12-09T14:18:28.962Z,2.80
2017-12-09T14:20:56.573Z,3.30
2017-12-09T14:23:26.480Z,7.50
2017-12-09T14:29:02.110Z,3.73
2017-12-09T14:31:30.268Z,3.50
2017-12-09T14:33:57.892Z,3.07
2017-12-09T14:36:25.515Z,3.27
2017-12-09T14:38:53.285Z,3.10
2017-12-09T14:41:20.965Z,3.93
2017-12-09T14:43:48.591Z,3.03
2017-12-09T14:46:23.666Z,5.63
2017-12-09T14:48:51.223Z,4.20
2017-12-09T14:51:19.167Z,3.13
2017-12-09T14:53:46.819Z,3.40
2017-12-09T14:56:14.392Z,5.03
2017-12-09T14:58:41.990Z,5.20
2017-12-09T15:01:09.993Z,3.47
2017-12-09T15:03:37.590Z,3.43
2017-12-09T15:06:05.460Z,3.43
2017-12-09T15:08:33.320Z,3.70
2017-12-09T15:11:01.866Z,4.27
2017-12-09T15:13:29.657Z,8.00
2017-12-09T15:15:57.635Z,8.47
2017-12-09T15:18:25.393Z,6.30
2017-12-09T15:20:53.015Z,8.60
2017-12-09T15:23:20.727Z,9.40
2017-12-09T15:25:48.406Z,9.23
2017-12-09T15:28:16.243Z,7.40
2017-12-09T15:30:44.032Z,7.57
2017-12-09T15:33:11.710Z,8.27
2017-12-09T15:35:39.318Z,5.70
2017-12-09T15:38:07.720Z,5.40
2017-12-09T15:40:35.423Z,6.90
2017-12-09T15:43:02.971Z,6.90
2017-12-09T15:45:30.644Z,8.50
2017-12-09T15:47:58.974Z,4.93
2017-12-09T15:50:27.413Z,8.70
2017-12-09T15:52:55.228Z,6.43
2017-12-09T15:55:23.531Z,5.27
2017-12-09T15:57:51.276Z,4.07
2017-12-09T16:00:19.299Z,7.80
2017-12-09T16:02:46.883Z,10.80
2017-12-09T16:05:14.458Z,11.07
2017-12-09T16:07:42.751Z,8.20
2017-12-09T16:10:13.315Z,7.10
2017-12-09T16:12:41.273Z,8.30
2017-12-09T16:15:09.226Z,9.20
2017-12-09T16:17:37.283Z,13.77
2017-12-09T16:20:04.882Z,8.00
2017-12-09T16:22:32.464Z,6.70
2017-12-09T16:25:00.324Z,6.80
2017-12-09T16:27:27.966Z,5.00
2017-12-09T16:29:56.724Z,5.70
2017-12-09T16:32:24.465Z,4.70
2017-12-09T16:34:52.051Z,4.80
2017-12-09T16:37:19.720Z,11.50
2017-12-09T16:39:47.401Z,9.33
2017-12-09T16:42:14.986Z,9.70
2017-12-09T16:44:42.554Z,9.73
2017-12-09T16:47:10.162Z,8.03
2017-12-09T16:49:37.789Z,6.60
2017-12-09T16:52:05.710Z,10.23
2017-12-09T16:54:33.317Z,9.77
2017-12-09T16:57:00.904Z,9.40
2017-12-09T16:59:29.342Z,10.50
2017-12-09T17:01:57.393Z,10.90
2017-12-09T17:04:25.302Z,9.60
2017-12-09T17:06:52.856Z,10.00
2017-12-09T17:09:21.910Z,10.07
2017-12-09T17:11:49.557Z,9.47
2017-12-09T17:14:18.002Z,8.10
2017-12-09T17:16:45.607Z,8.63
2017-12-09T17:19:13.496Z,10.50
2017-12-09T17:21:41.145Z,12.20
2017-12-09T17:24:08.878Z,12.07
2017-12-09T17:26:36.790Z,68.33
2017-12-09T17:29:04.581Z,89.47
2017-12-09T17:31:32.339Z,173.20
2017-12-09T17:34:00.226Z,471.93
2017-12-09T17:36:28.165Z,248.50
2017-12-09T17:38:55.946Z,249.33
2017-12-09T17:41:24.031Z,103.07
2017-12-09T17:43:52.496Z,10.40
2017-12-09T17:46:20.205Z,9.93
2017-12-09T17:48:48.705Z,15.10
2017-12-09T17:51:16.359Z,14.47
2017-12-09T17:53:44.450Z,16.60
2017-12-09T17:56:12.074Z,12.47
2017-12-09T17:58:39.717Z,12.40
2017-12-09T18:01:09.486Z,9.40
2017-12-09T18:03:38.641Z,10.83
2017-12-09T18:06:08.909Z,11.63
2017-12-09T18:08:37.612Z,11.20
2017-12-09T18:11:05.579Z,12.70
2017-12-09T18:13:33.376Z,15.40
2017-12-09T18:16:01.112Z,16.33
2017-12-09T18:18:29.716Z,15.30
2017-12-09T18:20:58.044Z,21.30
2017-12-09T18:23:26.098Z,18.80
2017-12-09T18:25:54.636Z,15.33
2017-12-09T18:28:22.452Z,20.47
2017-12-09T18:30:50.128Z,18.57
2017-12-09T18:33:18.587Z,15.93
2017-12-09T18:35:47.278Z,12.97
2017-12-09T18:38:15.018Z,10.20
2017-12-09T18:40:42.722Z,10.33
2017-12-09T18:43:10.382Z,10.63
2017-12-09T18:45:38.425Z,13.17
2017-12-09T18:48:06.234Z,13.83
2017-12-09T18:50:34.461Z,22.83
2017-12-09T18:53:02.492Z,31.60
2017-12-09T18:55:32.097Z,31.00
2017-12-09T18:58:00.077Z,17.03
2017-12-09T19:00:29.322Z,11.57
2017-12-09T19:02:57.411Z,9.97
2017-12-09T19:05:26.788Z,13.13
2017-12-09T19:07:57.242Z,11.77
2017-12-09T19:10:26.427Z,14.43
2017-12-09T19:13:00.367Z,13.23
2017-12-09T19:15:28.046Z,9.63
2017-12-09T19:17:55.730Z,9.00
2017-12-09T19:20:23.565Z,9.67
2017-12-09T19:22:51.211Z,9.47
2017-12-09T19:25:19.751Z,8.87
2017-12-09T19:27:47.845Z,11.30
2017-12-09T19:30:15.470Z,11.50
2017-12-09T19:32:43.395Z,10.70
2017-12-09T19:35:11.404Z,8.30
2017-12-09T19:37:39.047Z,11.20
2017-12-09T19:40:06.698Z,9.70
2017-12-09T19:42:34.412Z,10.23
2017-12-09T19:45:02.019Z,9.43
2017-12-09T19:47:29.661Z,10.10
2017-12-09T19:49:57.258Z,10.97
2017-12-09T19:52:25.701Z,9.57
2017-12-09T19:54:53.543Z,13.37
2017-12-09T19:57:21.380Z,12.27
2017-12-09T19:59:49.686Z,10.50
2017-12-09T20:02:18.008Z,9.55
2017-12-09T20:04:46.323Z,7.65
2017-12-09T20:07:13.956Z,8.90
2017-12-09T20:09:41.800Z,7.95
2017-12-09T20:12:09.546Z,6.78
2017-12-09T20:14:38.067Z,8.77
2017-12-09T20:17:06.034Z,8.55
2017-12-09T20:19:33.715Z,8.15
2017-12-09T20:22:01.350Z,9.70
2017-12-09T20:24:28.959Z,9.95
2017-12-09T20:26:57.201Z,8.70
2017-12-09T20:29:25.088Z,8.63
2017-12-09T20:31:52.699Z,9.40
2017-12-09T20:34:20.347Z,12.10
2017-12-09T20:36:48.795Z,9.15
2017-12-09T20:39:17.403Z,11.00
2017-12-09T20:41:45.259Z,9.03
2017-12-09T20:44:12.910Z,7.80
2017-12-09T20:46:41.565Z,9.00
2017-12-09T20:49:09.410Z,9.63
2017-12-09T20:51:37.062Z,7.53
2017-12-09T20:54:05.624Z,9.00
2017-12-09T20:56:33.379Z,8.20
2017-12-09T20:59:01.130Z,9.57
2017-12-09T21:01:28.850Z,8.95
2017-12-09T21:03:56.522Z,10.07
2017-12-09T21:06:24.453Z,9.90
2017-12-09T21:08:52.283Z,8.90
2017-12-09T21:11:19.977Z,10.00
2017-12-09T21:13:47.757Z,9.73
2017-12-09T21:16:15.994Z,11.17
2017-12-09T21:18:43.649Z,10.63
2017-12-09T21:21:11.285Z,13.60
2017-12-09T21:23:39.061Z,11.37
2017-12-09T21:26:07.225Z,8.20
2017-12-09T21:28:35.074Z,10.60
2017-12-09T21:31:02.712Z,10.10
2017-12-09T21:33:30.474Z,10.00
2017-12-09T21:35:58.294Z,10.47
2017-12-09T21:38:26.005Z,11.07
2017-12-09T21:40:53.617Z,10.50
2017-12-09T21:43:21.448Z,11.10
2017-12-09T21:45:49.152Z,12.10
2017-12-09T21:48:16.781Z,11.83
2017-12-09T21:50:45.271Z,11.13
2017-12-09T21:53:13.139Z,12.30
2017-12-09T21:55:41.110Z,11.20
2017-12-09T21:58:08.720Z,11.10
2017-12-09T22:00:36.527Z,14.10
2017-12-09T22:03:05.131Z,12.83
2017-12-09T22:05:32.807Z,12.13
2017-12-09T22:08:00.518Z,15.50
2017-12-09T22:10:28.079Z,15.30
2017-12-09T22:12:55.667Z,15.40
2017-12-09T22:15:23.314Z,14.17
2017-12-09T22:17:51.139Z,12.17
2017-12-09T22:20:19.123Z,8.40
2017-12-09T22:22:47.632Z,2.80
2017-12-09T22:25:15.612Z,2.90
2017-12-09T22:27:44.529Z,1.70
2017-12-09T22:30:12.286Z,3.12
2017-12-09T22:32:40.820Z,1.73
2017-12-09T22:35:10.217Z,1.50
2017-12-09T22:37:38.956Z,1.20
2017-12-09T22:40:06.597Z,1.37
2017-12-09T22:42:34.276Z,1.40
2017-12-09T22:45:02.096Z,1.70
2017-12-09T22:47:30.142Z,1.67
2017-12-09T22:49:58.125Z,2.10
2017-12-09T22:52:25.895Z,2.28
2017-12-09T22:54:53.989Z,1.95
2017-12-09T22:57:21.707Z,2.22
2017-12-09T22:59:49.330Z,2.35
2017-12-09T23:02:16.985Z,2.65
2017-12-09T23:05:01.224Z,2.22
2017-12-09T23:07:28.818Z,1.77
2017-12-09T23:09:56.617Z,2.10
2017-12-09T23:12:24.406Z,2.10
2017-12-09T23:14:52.057Z,2.08
2017-12-09T23:17:19.885Z,2.00
2017-12-09T23:19:47.626Z,2.17
2017-12-09T23:22:17.041Z,1.70
2017-12-09T23:24:44.865Z,1.42
2017-12-09T23:27:12.505Z,1.67
2017-12-09T23:29:42.533Z,1.50
2017-12-09T23:32:10.105Z,1.60
2017-12-09T23:34:38.233Z,1.45
2017-12-09T23:37:06.292Z,1.17
2017-12-09T23:39:34.133Z,1.90
2017-12-09T23:42:01.678Z,1.65
2017-12-09T23:44:29.653Z,1.67
2017-12-09T23:46:58.175Z,1.73
2017-12-09T23:49:26.908Z,2.25
2017-12-09T23:51:54.473Z,1.73
2017-12-09T23:54:22.132Z,1.60
2017-12-09T23:56:49.730Z,2.10
2017-12-09T23:59:17.529Z,1.80
